Time;durP1;ratioP1;P1;durP2;ratioP2;P2;SDS_P1;SDS_P2;PMS_P1;PMS_P2;Temp;Humidity;BMP_temperature;BMP_pressure;BME280_temperature;BME280_humidity;BME280_pressure;Samples;Min_cycle;Max_cycle;Signal;HPM_P1;HPM_P2
2021/12/28 00:00:11;;;;;;;43.40;23.57;;;;;;;1.08;90.64;100204.88;5030106;28;20187;-74
2021/12/28 00:02:40;;;;;;;38.60;23.43;;;;;;;1.09;90.63;100188.97;5063072;28;20350;-72
2021/12/28 00:05:07;;;;;;;39.97;23.80;;;;;;;1.10;90.93;100179.75;5071065;28;20205;-72
2021/12/28 00:07:32;;;;;;;40.73;23.87;;;;;;;1.09;90.67;100176.34;5071584;28;20181;-72
2021/12/28 00:09:58;;;;;;;39.27;23.90;;;;;;;1.08;91.58;100182.19;5071198;28;20247;-72
2021/12/28 00:12:23;;;;;;;38.03;23.10;;;;;;;1.11;91.07;100174.78;5071414;28;20193;-72
2021/12/28 00:15:01;;;;;;;38.27;23.10;;;;;;;1.11;91.52;100186.50;5052715;28;20198;-72
2021/12/28 00:20:10;;;;;;;39.37;23.47;;;;;;;1.13;90.79;100174.84;5050088;28;20298;-72
2021/12/28 00:22:36;;;;;;;37.83;23.83;;;;;;;1.12;90.65;100168.94;5049611;28;20265;-72
2021/12/28 00:25:01;;;;;;;38.93;23.00;;;;;;;1.12;90.83;100166.44;5050991;28;20210;-72
2021/12/28 00:27:27;;;;;;;37.87;23.60;;;;;;;1.13;91.73;100170.66;5049846;28;20252;-74
2021/12/28 00:29:52;;;;;;;39.50;22.57;;;;;;;1.11;90.63;100168.88;5049236;28;20186;-74
2021/12/28 00:32:18;;;;;;;39.63;23.00;;;;;;;1.14;91.68;100166.50;5050611;28;20297;-74
2021/12/28 00:34:43;;;;;;;41.17;23.80;;;;;;;1.15;91.12;100170.75;5049681;28;20269;-74
2021/12/28 00:37:09;;;;;;;36.47;23.40;;;;;;;1.16;91.12;100168.28;5049468;28;20184;-74
2021/12/28 00:39:34;;;;;;;40.13;23.20;;;;;;;1.15;91.53;100171.59;5050710;28;20185;-74
2021/12/28 00:41:59;;;;;;;39.03;23.50;;;;;;;1.18;90.67;100161.66;5050294;28;20209;-74
2021/12/28 00:44:25;;;;;;;39.97;24.43;;;;;;;1.18;90.76;100161.66;5049248;28;20214;-74
2021/12/28 00:46:50;;;;;;;39.40;23.47;;;;;;;1.19;91.14;100160.84;5050716;28;20730;-74
2021/12/28 00:49:15;;;;;;;40.23;23.50;;;;;;;1.20;90.89;100155.03;5049066;28;20174;-74
2021/12/28 00:51:41;;;;;;;41.27;23.53;;;;;;;1.20;91.21;100152.53;5050692;28;20209;-74
2021/12/28 00:54:06;;;;;;;40.17;23.47;;;;;;;1.20;91.68;100150.00;5065737;28;20276;-74
2021/12/28 00:56:31;;;;;;;38.50;23.53;;;;;;;1.22;91.49;100148.41;5065764;28;20285;-74
2021/12/28 00:58:57;;;;;;;38.90;22.50;;;;;;;1.25;91.05;100150.19;5050541;28;20281;-74
2021/12/28 01:01:22;;;;;;;40.40;24.17;;;;;;;1.23;90.59;100147.59;5049875;28;20209;-72
2021/12/28 01:03:47;;;;;;;41.43;23.73;;;;;;;1.24;91.18;100146.78;5049593;28;20193;-74
2021/12/28 01:06:13;;;;;;;39.57;23.87;;;;;;;1.23;91.20;100135.00;5048631;28;20190;-73
2021/12/28 01:08:38;;;;;;;41.60;25.03;;;;;;;1.23;91.61;100137.50;5049869;28;20186;-72
2021/12/28 01:11:05;;;;;;;41.63;24.50;;;;;;;1.25;90.59;100137.59;5048581;28;20216;-72
2021/12/28 01:13:31;;;;;;;37.07;22.70;;;;;;;1.24;90.78;100136.72;5050309;28;20197;-72
2021/12/28 01:15:56;;;;;;;38.43;23.87;;;;;;;1.26;90.52;100134.25;5050091;28;20524;-72
2021/12/28 01:18:23;;;;;;;41.07;23.73;;;;;;;1.26;90.40;100131.75;5050005;28;20268;-74
2021/12/28 01:20:48;;;;;;;39.57;22.70;;;;;;;1.24;91.36;100131.66;5049859;28;20210;-74
2021/12/28 01:23:14;;;;;;;38.37;23.43;;;;;;;1.24;90.84;100129.16;5049600;28;20701;-72
2021/12/28 01:25:40;;;;;;;36.70;23.90;;;;;;;1.29;91.57;100134.41;5048509;28;20214;-74
2021/12/28 01:28:06;;;;;;;36.67;23.37;;;;;;;1.27;90.73;100126.78;5048123;28;20235;-72
2021/12/28 01:30:32;;;;;;;37.57;23.00;;;;;;;1.28;91.10;100120.09;5049481;28;20213;-73
2021/12/28 01:32:59;;;;;;;40.17;22.33;;;;;;;1.25;90.73;100112.38;5049679;28;20217;-72
2021/12/28 01:35:26;;;;;;;39.17;23.63;;;;;;;1.27;91.74;100115.81;5049499;28;20343;-72
2021/12/28 01:37:51;;;;;;;36.80;22.03;;;;;;;1.27;91.72;100106.59;5047944;28;20280;-72
2021/12/28 01:40:21;;;;;;;37.03;21.60;;;;;;;1.27;90.66;100111.66;5049186;28;20288;-72
2021/12/28 01:42:57;;;;;;;39.33;23.27;;;;;;;1.31;90.46;100102.53;5049291;28;20215;-73
2021/12/28 01:45:35;;;;;;;39.70;22.10;;;;;;;1.29;90.66;100109.19;5049255;28;20201;-74
2021/12/28 01:48:01;;;;;;;40.73;24.17;;;;;;;1.29;91.59;100117.59;5048266;28;20190;-74
2021/12/28 01:50:26;;;;;;;36.10;22.57;;;;;;;1.30;91.33;100104.22;5049179;28;20213;-72
2021/12/28 01:52:52;;;;;;;36.17;22.67;;;;;;;1.31;90.29;100100.91;5048212;28;20272;-72
2021/12/28 01:55:17;;;;;;;39.80;23.53;;;;;;;1.28;90.68;100103.28;5049065;28;20243;-71
2021/12/28 01:57:44;;;;;;;39.77;24.10;;;;;;;1.29;90.71;100096.59;5049538;28;20232;-74
2021/12/28 02:00:10;;;;;;;40.43;23.20;;;;;;;1.27;90.86;100088.97;5048708;28;20268;-74
2021/12/28 02:02:38;;;;;;;40.80;23.63;;;;;;;1.27;91.66;100091.47;5049447;28;20185;-74
2021/12/28 02:05:04;;;;;;;38.37;23.87;;;;;;;1.26;90.66;100084.72;5048752;28;20209;-74
2021/12/28 02:07:29;;;;;;;38.03;23.10;;;;;;;1.23;91.02;100094.66;5048477;28;20182;-72
2021/12/28 02:09:55;;;;;;;45.33;26.00;;;;;;;1.22;91.35;100077.81;5048865;28;20186;-73
2021/12/28 02:12:21;;;;;;;43.97;25.17;;;;;;;1.21;90.38;100082.78;5049679;28;20212;-72
2021/12/28 02:14:47;;;;;;;41.33;24.70;;;;;;;1.21;90.88;100087.81;5049271;28;20659;-72
2021/12/28 02:17:14;;;;;;;44.00;26.37;;;;;;;1.19;90.98;100081.88;5049200;28;20185;-72
2021/12/28 02:19:41;;;;;;;40.50;24.23;;;;;;;1.19;91.32;100081.88;5048875;28;20189;-72
2021/12/28 02:22:07;;;;;;;44.60;25.97;;;;;;;1.18;91.02;100070.91;5047815;28;20221;-72
2021/12/28 02:24:33;;;;;;;42.17;25.07;;;;;;;1.18;91.76;100073.44;5047630;28;20214;-72
2021/12/28 02:26:58;;;;;;;44.07;25.63;;;;;;;1.16;90.88;100064.97;5049260;28;20610;-73
2021/12/28 02:29:23;;;;;;;44.57;27.17;;;;;;;1.16;90.99;100066.59;5048745;28;20186;-72
2021/12/28 02:31:55;;;;;;;48.10;27.77;;;;;;;1.15;91.51;100070.75;5049117;28;20198;-74
2021/12/28 02:34:23;;;;;;;46.37;26.97;;;;;;;1.16;91.47;100067.47;5048131;28;20193;-74
2021/12/28 02:36:49;;;;;;;43.27;26.53;;;;;;;1.15;91.69;100060.69;5049405;28;20659;-72
2021/12/28 02:39:14;;;;;;;47.73;26.53;;;;;;;1.16;91.22;100057.41;5066013;28;20192;-72
2021/12/28 02:41:39;;;;;;;45.07;26.30;;;;;;;1.17;91.61;100063.28;5052603;28;20826;-72
2021/12/28 02:44:05;;;;;;;49.20;28.37;;;;;;;1.14;91.09;100045.53;5052597;28;20654;-72
2021/12/28 02:46:30;;;;;;;43.97;26.10;;;;;;;1.16;91.79;100039.75;5052030;28;20694;-72
2021/12/28 02:48:56;;;;;;;44.97;26.27;;;;;;;1.11;91.72;100040.34;5051730;28;20221;-72
2021/12/28 02:51:21;;;;;;;47.33;26.93;;;;;;;1.12;91.37;100045.44;5051266;28;20251;-72
2021/12/28 02:53:47;;;;;;;48.03;27.60;;;;;;;1.11;91.24;100043.72;5052755;28;20675;-75
2021/12/28 02:56:14;;;;;;;42.43;26.30;;;;;;;1.09;91.29;100041.94;5052309;28;20190;-72
2021/12/28 02:58:45;;;;;;;47.37;27.00;;;;;;;1.13;90.97;100042.13;5051343;28;20539;-73
2021/12/28 03:01:23;;;;;;;45.57;26.80;;;;;;;1.11;90.71;100042.84;5051864;28;20264;-72
2021/12/28 03:03:52;;;;;;;45.20;26.27;;;;;;;1.11;90.76;100043.72;5052723;28;20170;-74
2021/12/28 03:06:19;;;;;;;46.53;27.10;;;;;;;1.14;90.66;100045.53;5052487;28;20293;-74
2021/12/28 03:08:48;;;;;;;50.37;27.50;;;;;;;1.11;91.20;100052.94;5052427;28;20256;-74
2021/12/28 03:11:14;;;;;;;44.63;26.87;;;;;;;1.16;91.03;100056.53;5051023;28;20567;-74
2021/12/28 03:13:44;;;;;;;49.97;26.90;;;;;;;1.16;90.96;100059.03;5052054;28;20185;-74
2021/12/28 03:16:10;;;;;;;44.93;26.43;;;;;;;1.19;91.10;100061.69;5067611;28;20198;-73
2021/12/28 03:18:36;;;;;;;47.87;27.47;;;;;;;1.19;90.38;100066.75;5052340;28;20220;-73
2021/12/28 03:21:04;;;;;;;45.50;26.90;;;;;;;1.15;91.09;100063.22;5067152;28;20347;-73
2021/12/28 03:23:30;;;;;;;49.10;28.47;;;;;;;1.17;90.58;100056.59;5052279;28;20181;-73
2021/12/28 03:25:55;;;;;;;44.60;26.87;;;;;;;1.16;90.85;100059.03;5050968;28;20201;-73
2021/12/28 03:28:33;;;;;;;48.20;27.77;;;;;;;1.12;90.77;100049.63;5051111;28;20356;-73
2021/12/28 03:31:00;;;;;;;49.43;27.60;;;;;;;1.12;90.67;100054.66;5050427;28;20201;-73
2021/12/28 03:33:29;;;;;;;49.23;28.83;;;;;;;1.15;90.07;100055.66;5067403;28;20190;-73
2021/12/28 03:35:55;;;;;;;47.90;27.10;;;;;;;1.14;91.16;100048.03;5066584;28;20339;-73
2021/12/28 03:38:21;;;;;;;51.10;29.37;;;;;;;1.13;91.30;100046.28;5050621;28;20253;-73
2021/12/28 03:40:47;;;;;;;48.57;28.10;;;;;;;1.18;91.24;100038.16;5050384;28;20725;-73
2021/12/28 03:43:13;;;;;;;49.47;29.00;;;;;;;1.20;90.56;100035.69;5049233;28;20198;-73
2021/12/28 03:45:38;;;;;;;49.20;28.87;;;;;;;1.16;90.54;100034.72;5049218;28;20281;-73
2021/12/28 03:48:04;;;;;;;46.77;28.43;;;;;;;1.15;91.23;100022.03;5049286;28;20643;-73
2021/12/28 03:50:34;;;;;;;49.90;27.67;;;;;;;1.15;91.43;100012.78;5050076;28;20208;-73
2021/12/28 03:53:00;;;;;;;50.03;29.70;;;;;;;1.11;91.75;100010.09;5049171;28;20242;-73
2021/12/28 03:55:26;;;;;;;52.23;29.13;;;;;;;1.14;90.97;100002.69;5049005;28;20182;-74
2021/12/28 03:57:53;;;;;;;50.70;28.87;;;;;;;1.15;91.91;99997.66;5048820;28;20611;-73
2021/12/28 04:00:22;;;;;;;47.50;28.53;;;;;;;1.18;91.30;99994.41;5049679;28;20704;-73
2021/12/28 04:02:47;;;;;;;48.30;29.03;;;;;;;1.17;91.83;99982.63;5050502;28;20413;-73
2021/12/28 04:05:14;;;;;;;49.13;30.13;;;;;;;1.18;91.68;99985.22;5049841;28;20214;-73
2021/12/28 04:07:40;;;;;;;51.00;29.07;;;;;;;1.21;92.11;99977.78;5065839;28;20279;-73
2021/12/28 04:10:09;;;;;;;47.20;27.33;;;;;;;1.21;91.80;99974.41;5049764;28;20264;-73
2021/12/28 04:12:34;;;;;;;51.67;30.53;;;;;;;1.20;92.02;99963.47;5050427;28;20185;-73
2021/12/28 04:15:00;;;;;;;51.03;29.47;;;;;;;1.20;91.68;99963.47;5048494;28;20189;-73
2021/12/28 04:17:27;;;;;;;49.57;29.23;;;;;;;1.14;92.24;99944.72;5049989;28;20267;-73
2021/12/28 04:19:53;;;;;;;51.83;29.20;;;;;;;1.13;92.40;99946.34;5048606;28;20198;-73
2021/12/28 04:22:18;;;;;;;51.73;29.70;;;;;;;1.15;91.79;99944.75;5065076;28;20216;-73
2021/12/28 04:24:44;;;;;;;47.63;29.47;;;;;;;1.14;92.40;99947.22;5065172;28;20253;-73
2021/12/28 04:27:09;;;;;;;45.23;28.03;;;;;;;1.13;91.95;99951.41;5065007;28;20201;-73
2021/12/28 04:29:35;;;;;;;52.73;30.17;;;;;;;1.16;91.92;99949.00;5049629;28;20235;-73
2021/12/28 04:32:00;;;;;;;50.83;29.70;;;;;;;1.20;92.09;99957.56;5049925;28;20197;-73
2021/12/28 04:34:27;;;;;;;52.20;28.13;;;;;;;1.20;92.53;99955.91;5040721;28;1036863;-73
2021/12/28 04:36:52;;;;;;;49.23;28.47;;;;;;;1.19;92.57;99964.25;5050815;28;20185;-73
2021/12/28 04:39:17;;;;;;;48.00;28.97;;;;;;;1.22;91.48;99961.00;5050356;28;20236;-73
2021/12/28 04:41:43;;;;;;;47.40;28.20;;;;;;;1.24;91.48;99965.28;5032645;28;20209;-73
2021/12/28 04:44:12;;;;;;;43.60;28.03;;;;;;;1.24;91.49;99946.81;5049459;28;20209;-73
2021/12/28 04:46:37;;;;;;;46.60;26.70;;;;;;;1.23;91.85;99950.97;5049289;28;20210;-73
2021/12/28 04:49:02;;;;;;;50.17;28.53;;;;;;;1.28;91.70;99949.50;5050575;28;20227;-73
2021/12/28 04:51:28;;;;;;;50.03;27.70;;;;;;;1.30;91.12;99939.47;5032212;28;20267;-73
2021/12/28 04:53:55;;;;;;;49.70;28.07;;;;;;;1.28;91.38;99931.00;5049442;28;20189;-73
2021/12/28 04:56:20;;;;;;;45.93;26.87;;;;;;;1.27;91.69;99934.31;5050465;28;20681;-73
2021/12/28 04:58:46;;;;;;;46.73;28.50;;;;;;;1.24;92.14;99924.13;5048934;28;20177;-73
2021/12/28 05:01:11;;;;;;;49.77;29.57;;;;;;;1.27;91.31;99921.69;5049161;28;20225;-73
2021/12/28 05:03:37;;;;;;;50.10;28.87;;;;;;;1.24;92.17;99922.44;5050210;28;20243;-73
2021/12/28 05:06:02;;;;;;;47.13;28.33;;;;;;;1.27;91.21;99915.00;5065213;28;20773;-73
2021/12/28 05:08:28;;;;;;;47.33;28.27;;;;;;;1.30;91.66;99916.81;5065462;28;20256;-73
2021/12/28 05:10:54;;;;;;;47.57;27.77;;;;;;;1.28;92.40;99915.88;5049890;28;20577;-73
2021/12/28 05:13:20;;;;;;;51.00;28.83;;;;;;;1.28;91.74;99905.81;5048663;28;20194;-73
2021/12/28 05:15:46;;;;;;;49.37;27.23;;;;;;;1.29;91.54;99918.44;5049816;28;20265;-73
2021/12/28 05:18:13;;;;;;;50.63;28.57;;;;;;;1.31;91.56;99921.91;5049884;28;20208;-73
2021/12/28 05:20:38;;;;;;;49.10;29.27;;;;;;;1.28;91.14;99925.97;5049539;28;20240;-73
2021/12/28 05:23:04;;;;;;;51.90;28.30;;;;;;;1.29;91.92;99915.94;5048653;28;20217;-73
2021/12/28 05:25:30;;;;;;;46.97;28.43;;;;;;;1.30;91.82;99920.19;5049734;28;20702;-74
2021/12/28 05:27:56;;;;;;;46.03;27.93;;;;;;;1.28;90.98;99926.81;5049431;28;20186;-73
2021/12/28 05:30:22;;;;;;;50.20;29.00;;;;;;;1.29;91.84;99920.97;5049674;28;20186;-73
2021/12/28 05:32:48;;;;;;;50.53;28.97;;;;;;;1.33;90.71;99920.28;5048698;28;20196;-73
2021/12/28 05:35:14;;;;;;;50.37;29.47;;;;;;;1.31;91.04;99924.44;5049404;28;20539;-73
2021/12/28 05:37:39;;;;;;;45.10;27.43;;;;;;;1.31;91.26;99926.94;5049453;28;20197;-73
2021/12/28 05:40:07;;;;;;;49.83;28.80;;;;;;;1.30;90.92;99924.34;5047755;28;20185;-73
2021/12/28 05:42:32;;;;;;;49.47;28.60;;;;;;;1.30;91.29;99922.72;5049506;28;20190;-73
2021/12/28 05:44:58;;;;;;;49.77;28.40;;;;;;;1.32;91.53;99922.78;5049303;28;20659;-73
2021/12/28 05:47:23;;;;;;;49.80;29.63;;;;;;;1.33;91.79;99930.38;5047892;28;20193;-73
2021/12/28 05:49:49;;;;;;;49.10;29.07;;;;;;;1.32;91.50;99920.25;5047755;28;20308;-73
2021/12/28 05:52:14;;;;;;;49.93;28.57;;;;;;;1.33;91.74;99911.88;5048322;28;20209;-73
2021/12/28 05:54:40;;;;;;;49.23;28.20;;;;;;;1.31;91.41;99910.94;5049121;28;20192;-73
2021/12/28 05:57:07;;;;;;;47.90;28.57;;;;;;;1.34;91.37;99906.03;5049729;28;20651;-73
2021/12/28 05:59:32;;;;;;;48.33;27.97;;;;;;;1.36;91.52;99912.00;5031036;28;20675;-73
2021/12/28 06:01:58;;;;;;;44.93;27.50;;;;;;;1.36;91.50;99907.81;5049606;28;20251;-73
2021/12/28 06:04:23;;;;;;;44.03;26.73;;;;;;;1.38;91.23;99910.41;5049380;28;20760;-73
2021/12/28 06:06:49;;;;;;;46.47;27.97;;;;;;;1.38;90.74;99901.16;5048999;28;20607;-73
2021/12/28 06:09:14;;;;;;;45.03;27.57;;;;;;;1.37;91.26;99903.66;5048872;28;20217;-75
2021/12/28 06:11:39;;;;;;;49.43;27.60;;;;;;;1.38;91.07;99901.16;5047936;28;20212;-74
2021/12/28 06:14:05;;;;;;;47.83;27.73;;;;;;;1.43;90.90;99896.31;5046562;28;20193;-74
2021/12/28 06:16:31;;;;;;;45.10;26.33;;;;;;;1.46;90.93;99906.53;5049135;28;20196;-73
2021/12/28 06:18:56;;;;;;;46.73;28.30;;;;;;;1.44;90.96;99903.97;5048918;28;20196;-74
2021/12/28 06:21:22;;;;;;;47.33;28.57;;;;;;;1.43;91.77;99909.81;5049269;28;20201;-74
2021/12/28 06:23:48;;;;;;;43.63;26.87;;;;;;;1.41;91.31;99903.81;5049594;28;20855;-74
2021/12/28 06:26:13;;;;;;;49.93;29.30;;;;;;;1.40;91.89;99907.16;5049206;28;20670;-74
2021/12/28 06:28:39;;;;;;;49.47;29.17;;;;;;;1.44;92.15;99909.00;5048818;28;20584;-73
2021/12/28 06:31:04;;;;;;;49.43;28.50;;;;;;;1.46;92.08;99909.91;5064483;28;20304;-73
2021/12/28 06:33:29;;;;;;;51.77;29.60;;;;;;;1.44;92.46;99918.22;5049310;28;20174;-73
2021/12/28 06:35:55;;;;;;;46.10;28.10;;;;;;;1.44;92.24;99909.00;5030706;28;20679;-73
2021/12/28 06:38:21;;;;;;;48.67;29.90;;;;;;;1.43;93.00;99914.84;5047304;28;20659;-73
2021/12/28 06:40:47;;;;;;;48.90;30.30;;;;;;;1.42;92.74;99905.53;5048718;28;20221;-74
2021/12/28 06:43:13;;;;;;;55.83;30.70;;;;;;;1.44;93.30;99909.00;5047384;28;20177;-73
2021/12/28 06:45:39;;;;;;;56.80;31.07;;;;;;;1.41;92.46;99900.44;5048679;28;20209;-74
2021/12/28 06:48:05;;;;;;;50.63;30.17;;;;;;;1.45;92.81;99910.72;5048469;28;20194;-74
2021/12/28 06:50:31;;;;;;;48.43;29.10;;;;;;;1.46;93.36;99909.91;5048440;28;20309;-74
2021/12/28 06:52:56;;;;;;;51.60;30.63;;;;;;;1.42;93.31;99903.00;5064364;28;20273;-74
2021/12/28 06:55:21;;;;;;;51.30;29.43;;;;;;;1.47;92.85;99900.69;5048850;28;20193;-74
2021/12/28 06:57:47;;;;;;;55.50;31.87;;;;;;;1.46;93.25;99898.97;5048654;28;20201;-74
2021/12/28 07:00:17;;;;;;;50.87;30.43;;;;;;;1.46;93.71;99898.97;5048537;28;20612;-74
2021/12/28 07:02:43;;;;;;;51.17;30.23;;;;;;;1.44;94.12;99893.00;5047636;28;20185;-74
2021/12/28 07:05:09;;;;;;;55.47;31.83;;;;;;;1.43;93.74;99889.63;5047128;28;20209;-73
2021/12/28 07:07:35;;;;;;;52.23;31.93;;;;;;;1.45;93.88;99885.50;5048877;28;20193;-73
2021/12/28 07:10:01;;;;;;;55.20;31.80;;;;;;;1.44;94.20;99888.81;5048366;28;20599;-73
2021/12/28 07:12:27;;;;;;;56.40;32.33;;;;;;;1.45;94.40;99887.16;5047092;28;20228;-73
2021/12/28 07:14:53;;;;;;;55.77;33.47;;;;;;;1.45;94.25;99872.88;5048818;28;20182;-73
2021/12/28 07:17:19;;;;;;;56.30;32.53;;;;;;;1.43;95.21;99882.06;5047280;28;20221;-73
2021/12/28 07:19:46;;;;;;;57.60;32.87;;;;;;;1.44;94.76;99882.91;5048304;28;20240;-73
2021/12/28 07:22:11;;;;;;;61.27;35.10;;;;;;;1.40;94.80;99879.41;5048439;28;20218;-73
2021/12/28 07:24:37;;;;;;;59.53;33.33;;;;;;;1.44;94.49;99871.19;5049144;28;20213;-73
2021/12/28 07:27:02;;;;;;;59.70;33.83;;;;;;;1.40;94.73;99866.81;5051065;28;20565;-73
2021/12/28 07:29:28;;;;;;;57.93;34.57;;;;;;;1.40;95.62;99858.38;5051704;28;20182;-74
2021/12/28 07:31:53;;;;;;;64.37;35.20;;;;;;;1.41;95.01;99862.59;5049571;28;20607;-73
2021/12/28 07:34:18;;;;;;;59.07;34.70;;;;;;;1.40;95.52;99873.50;5051190;28;20189;-74
2021/12/28 07:36:44;;;;;;;64.33;35.87;;;;;;;1.39;95.87;99864.22;5051683;28;20196;-74
2021/12/28 07:39:09;;;;;;;68.97;38.17;;;;;;;1.35;95.53;99860.72;5051550;28;20180;-73
2021/12/28 07:41:35;;;;;;;67.80;37.77;;;;;;;1.38;95.20;99853.25;5050339;28;20256;-73
2021/12/28 07:44:01;;;;;;;67.23;37.13;;;;;;;1.34;95.00;99848.06;5052505;28;20221;-73
2021/12/28 07:46:27;;;;;;;68.60;37.93;;;;;;;1.31;94.94;99856.38;5069764;28;20212;-73
2021/12/28 07:48:52;;;;;;;70.93;38.77;;;;;;;1.32;95.55;99860.59;5051598;28;20251;-73
2021/12/28 07:51:18;;;;;;;66.60;39.07;;;;;;;1.33;95.78;99861.47;5050400;28;20256;-73
2021/12/28 07:53:43;;;;;;;72.57;40.60;;;;;;;1.34;95.33;99863.19;5051972;28;20186;-74
2021/12/28 07:56:08;;;;;;;64.97;37.47;;;;;;;1.35;95.27;99853.16;5050640;28;20186;-74
2021/12/28 07:58:34;;;;;;;71.13;39.40;;;;;;;1.35;94.96;99862.38;5050309;28;20194;-74
2021/12/28 08:00:59;;;;;;;72.83;40.67;;;;;;;1.33;95.68;99858.94;5051567;28;20213;-73
2021/12/28 08:03:25;;;;;;;67.63;38.07;;;;;;;1.33;95.37;99854.75;5051666;28;20177;-73
2021/12/28 08:05:52;;;;;;;68.00;39.37;;;;;;;1.35;95.70;99859.84;5051262;28;20225;-74
2021/12/28 08:08:17;;;;;;;73.07;40.27;;;;;;;1.34;94.95;99864.06;5050551;28;20357;-74
2021/12/28 08:10:44;;;;;;;65.93;38.13;;;;;;;1.39;94.98;99859.19;5050594;28;20716;-74
2021/12/28 08:13:10;;;;;;;71.53;38.37;;;;;;;1.34;95.43;99858.13;5051680;28;20189;-73
2021/12/28 08:15:36;;;;;;;67.80;37.87;;;;;;;1.34;95.14;99858.13;5050208;28;20186;-74
2021/12/28 08:18:03;;;;;;;66.00;39.07;;;;;;;1.35;95.33;99863.25;5051230;28;20239;-74
2021/12/28 08:20:29;;;;;;;72.30;39.07;;;;;;;1.34;94.74;99863.19;5051237;28;20236;-74
2021/12/28 08:22:56;;;;;;;70.00;39.97;;;;;;;1.35;94.52;99859.84;5051432;28;20669;-73
2021/12/28 08:25:22;;;;;;;74.83;40.40;;;;;;;1.35;94.77;99858.22;5051313;28;20571;-73
2021/12/28 08:27:47;;;;;;;69.23;38.53;;;;;;;1.31;94.33;99851.31;5051649;28;20185;-73
2021/12/28 08:30:14;;;;;;;69.87;38.53;;;;;;;1.31;94.47;99847.94;5066623;28;20284;-73
2021/12/28 08:32:39;;;;;;;71.10;37.87;;;;;;;1.31;95.03;99851.31;5066547;28;20178;-73
2021/12/28 08:35:06;;;;;;;69.87;39.43;;;;;;;1.33;95.03;99847.19;5051009;28;20186;-73
2021/12/28 08:37:32;;;;;;;70.37;38.77;;;;;;;1.32;95.09;99842.13;5050055;28;20281;-73
2021/12/28 08:39:58;;;;;;;70.73;39.70;;;;;;;1.31;94.32;99846.28;5050825;28;20268;-73
2021/12/28 08:42:23;;;;;;;74.30;40.97;;;;;;;1.32;95.01;99849.69;5066227;28;20675;-72
2021/12/28 08:44:49;;;;;;;70.87;40.17;;;;;;;1.30;94.45;99852.13;5051056;28;20210;-73
2021/12/28 08:47:15;;;;;;;70.93;41.27;;;;;;;1.33;94.65;99847.19;5051037;28;20260;-73
2021/12/28 08:49:41;;;;;;;74.20;40.53;;;;;;;1.34;93.88;99843.88;5051132;28;20280;-73
2021/12/28 08:52:07;;;;;;;67.37;39.73;;;;;;;1.34;93.69;99838.84;5051068;28;20202;-72
2021/12/28 08:54:33;;;;;;;69.07;41.37;;;;;;;1.33;94.15;99837.09;5051027;28;20185;-73
2021/12/28 08:56:59;;;;;;;77.50;41.10;;;;;;;1.27;93.71;99843.56;5049722;28;20212;-73
2021/12/28 08:59:25;;;;;;;74.23;41.73;;;;;;;1.24;94.95;99831.69;5049601;28;20185;-73
2021/12/28 09:01:50;;;;;;;82.20;44.57;;;;;;;1.24;94.27;99829.19;5049328;28;20225;-73
2021/12/28 09:04:17;;;;;;;73.27;42.57;;;;;;;1.29;94.46;99826.84;5049630;28;20974;-73
2021/12/28 09:06:44;;;;;;;77.10;42.30;;;;;;;1.30;93.90;99826.91;5050248;28;20580;-73
2021/12/28 09:09:09;;;;;;;72.27;41.33;;;;;;;1.35;94.98;99824.56;5050194;28;20252;-72
2021/12/28 09:11:34;;;;;;;73.33;41.20;;;;;;;1.34;94.01;99821.19;5050658;28;20202;-72
2021/12/28 09:14:00;;;;;;;71.70;40.97;;;;;;;1.33;94.66;99828.69;5049256;28;20213;-73
2021/12/28 09:16:25;;;;;;;73.93;43.13;;;;;;;1.36;93.84;99829.66;5065911;28;20186;-73
2021/12/28 09:18:51;;;;;;;74.30;41.83;;;;;;;1.33;94.60;99827.00;5050392;28;20185;-74
2021/12/28 09:21:16;;;;;;;75.60;41.30;;;;;;;1.42;94.08;99827.38;5065860;28;20279;-73
2021/12/28 09:23:41;;;;;;;77.53;41.43;;;;;;;1.40;94.48;99825.59;5050820;28;20585;-74
2021/12/28 09:26:07;;;;;;;75.87;41.50;;;;;;;1.37;94.26;99817.94;5050391;28;20585;-74
2021/12/28 09:28:32;;;;;;;71.93;41.37;;;;;;;1.38;94.25;99822.16;5048510;28;20185;-74
2021/12/28 09:30:58;;;;;;;78.30;41.60;;;;;;;1.38;93.81;99812.94;5050040;28;20296;-74
2021/12/28 09:33:24;;;;;;;71.77;41.13;;;;;;;1.37;94.83;99815.41;5048421;28;20194;-72
2021/12/28 09:35:51;;;;;;;73.30;42.63;;;;;;;1.37;94.53;99817.94;5049898;28;20185;-73
2021/12/28 09:38:17;;;;;;;76.27;41.07;;;;;;;1.38;93.55;99802.00;5049679;28;20280;-74
2021/12/28 09:40:43;;;;;;;76.80;43.10;;;;;;;1.47;93.54;99800.66;5050201;28;20355;-73
2021/12/28 09:43:08;;;;;;;72.20;41.03;;;;;;;1.45;93.94;99792.19;5050424;28;20193;-72
2021/12/28 09:45:35;;;;;;;73.90;41.10;;;;;;;1.51;93.62;99789.91;5049892;28;20232;-73
2021/12/28 09:48:01;;;;;;;72.33;41.20;;;;;;;1.50;93.80;99790.72;5049493;28;20268;-73
2021/12/28 09:50:27;;;;;;;71.83;41.10;;;;;;;1.57;93.15;99794.31;5064835;28;20288;-73
2021/12/28 09:52:53;;;;;;;76.53;42.30;;;;;;;1.54;93.33;99794.19;5048384;28;20198;-73
2021/12/28 09:55:23;;;;;;;74.20;40.70;;;;;;;1.59;93.01;99791.06;5048275;28;20204;-73
2021/12/28 09:57:50;;;;;;;69.63;40.33;;;;;;;1.63;93.70;99782.81;5049485;28;20190;-71
2021/12/28 10:00:17;;;;;;;69.47;40.03;;;;;;;1.62;93.65;99778.56;5049447;28;20189;-73
2021/12/28 10:02:43;;;;;;;68.97;39.20;;;;;;;1.65;94.13;99787.91;5049552;28;20186;-73
2021/12/28 10:05:16;;;;;;;70.80;40.10;;;;;;;1.65;93.39;99782.88;5049093;28;20738;-73
2021/12/28 10:07:49;;;;;;;78.13;44.20;;;;;;;1.65;93.81;99775.31;5064810;28;20193;-73
2021/12/28 10:10:15;;;;;;;79.73;43.00;;;;;;;1.75;93.79;99773.16;5049299;28;20260;-73
2021/12/28 10:12:44;;;;;;;70.63;39.90;;;;;;;1.85;92.37;99771.81;5049417;28;20174;-73
2021/12/28 10:15:19;;;;;;;71.07;40.80;;;;;;;1.91;92.87;99767.88;5047925;28;20184;-73
2021/12/28 10:17:47;;;;;;;73.83;41.10;;;;;;;1.97;92.70;99770.59;5049404;28;20189;-74
2021/12/28 10:20:19;;;;;;;94.33;50.47;;;;;;;2.02;92.92;99773.28;5049143;28;20178;-74
2021/12/28 10:22:53;;;;;;;80.63;42.67;;;;;;;1.90;93.07;99767.81;5049396;28;20647;-74
2021/12/28 10:25:23;;;;;;;99.40;55.97;;;;;;;1.94;93.04;99765.47;5064504;28;20221;-74
2021/12/28 10:28:04;;;;;;;72.47;41.93;;;;;;;1.96;92.86;99770.53;5047865;28;20271;-73
2021/12/28 10:30:37;;;;;;;72.90;41.47;;;;;;;1.87;92.73;99765.16;5046433;28;20308;-72
2021/12/28 10:33:06;;;;;;;71.07;41.33;;;;;;;1.89;92.58;99756.00;5048674;28;20244;-72
2021/12/28 10:36:05;;;;;;;65.03;38.73;;;;;;;2.17;92.82;99753.63;5048650;28;20217;-71
2021/12/28 10:38:34;;;;;;;72.27;41.93;;;;;;;2.67;93.18;99739.34;5042724;28;20343;-70
2021/12/28 10:41:06;;;;;;;70.97;40.27;;;;;;;2.77;91.80;99732.94;5048575;28;20686;-71
2021/12/28 10:43:37;;;;;;;73.67;40.43;;;;;;;2.85;90.51;99729.81;5030804;28;20185;-71
2021/12/28 10:46:07;;;;;;;68.30;40.70;;;;;;;2.90;89.90;99723.25;5047096;28;20278;-71
2021/12/28 10:48:42;;;;;;;76.03;45.20;;;;;;;2.89;89.12;99729.09;5048480;28;20200;-71
2021/12/28 10:51:12;;;;;;;89.50;51.03;;;;;;;2.91;89.35;99724.13;5048778;28;20213;-73
2021/12/28 10:56:25;;;;;;;75.87;41.97;;;;;;;3.10;88.44;99727.25;5048828;28;20185;-74
2021/12/28 10:58:51;;;;;;;72.70;43.23;;;;;;;2.69;88.40;99729.28;5043193;28;20190;-72
2021/12/28 11:01:19;;;;;;;85.57;47.77;;;;;;;2.59;89.36;99724.75;5046607;28;20316;-74
2021/12/28 11:03:47;;;;;;;81.17;49.60;;;;;;;2.71;89.56;99725.16;5062664;28;20205;-74
2021/12/28 11:06:27;;;;;;;65.03;39.10;;;;;;;2.75;89.22;99711.81;5044776;28;20501;-73
2021/12/28 11:08:56;;;;;;;65.43;38.30;;;;;;;2.77;88.94;99710.19;5051202;28;20185;-72
2021/12/28 11:11:24;;;;;;;67.70;43.47;;;;;;;2.65;89.97;99714.84;5049448;28;20912;-72
2021/12/28 11:13:54;;;;;;;63.00;37.93;;;;;;;2.56;90.08;99707.84;5050563;28;20264;-74
2021/12/28 11:16:25;;;;;;;63.73;36.90;;;;;;;2.52;90.28;99707.69;5050607;28;20192;-74
2021/12/28 11:18:56;;;;;;;63.83;37.73;;;;;;;2.45;90.91;99705.78;5050130;28;20235;-73
2021/12/28 11:21:25;;;;;;;67.40;39.47;;;;;;;2.40;91.25;99697.19;5051640;28;20221;-74
2021/12/28 11:23:54;;;;;;;61.40;38.33;;;;;;;2.30;90.60;99685.91;5050297;28;20573;-72